In Rescue
 
Open Full Screen Window  High Contrast Mode
Wind Gusting 20 knots
15
July 13, 2020 10:33 AM CDT
Weather Information
Wind Direction
  170 °
Wind Speed
  15 kt (17 mph)
Wind Gust
  20 kt (23 mph)
Altimeter
29.86 in
Visibility
10 SM
Temperature
25° C
77° F
Dewpoint
16° C
61° F
Humidity
57%
1hr Rain Fall
00.00 in.
24hr Rain Fall
00.00 in.
Sky Condition
Clear
VFR

METAR KDVP 131533Z AUTO 17015G20KT 10SM CLR 25/16 A2986 RMK AO2 T02500155

FAA Disclaimer: The data displayed is for advisory purposes only and is not to be used for flight planning or operations.